sensor_id;sensor_type;location;lat;lon;timestamp;P1;durP1;ratioP1;P2;durP2;ratioP2
67595;SDS011;54410;48.694;8.934;2023-04-24T00:00:54;1.13;;;0.70;;
67595;SDS011;54410;48.694;8.934;2023-04-24T00:03:25;0.75;;;0.75;;
67595;SDS011;54410;48.694;8.934;2023-04-24T00:05:52;1.10;;;0.80;;
67595;SDS011;54410;48.694;8.934;2023-04-24T00:08:21;2.25;;;0.93;;
67595;SDS011;54410;48.694;8.934;2023-04-24T00:10:48;1.55;;;0.80;;
67595;SDS011;54410;48.694;8.934;2023-04-24T00:13:14;2.25;;;1.00;;
67595;SDS011;54410;48.694;8.934;2023-04-24T00:15:40;2.13;;;0.70;;
67595;SDS011;54410;48.694;8.934;2023-04-24T00:18:06;2.15;;;0.88;;
67595;SDS011;54410;48.694;8.934;2023-04-24T00:20:32;1.48;;;1.38;;
67595;SDS011;54410;48.694;8.934;2023-04-24T00:23:00;1.52;;;0.93;;
67595;SDS011;54410;48.694;8.934;2023-04-24T00:25:26;0.80;;;0.70;;
67595;SDS011;54410;48.694;8.934;2023-04-24T00:27:51;2.78;;;0.80;;
67595;SDS011;54410;48.694;8.934;2023-04-24T00:30:17;1.92;;;0.90;;
67595;SDS011;54410;48.694;8.934;2023-04-24T00:32:43;1.50;;;0.90;;
67595;SDS011;54410;48.694;8.934;2023-04-24T00:35:09;1.58;;;0.80;;
67595;SDS011;54410;48.694;8.934;2023-04-24T00:37:35;1.63;;;0.82;;
67595;SDS011;54410;48.694;8.934;2023-04-24T00:40:01;0.70;;;0.65;;
67595;SDS011;54410;48.694;8.934;2023-04-24T00:42:28;0.68;;;0.68;;
67595;SDS011;54410;48.694;8.934;2023-04-24T00:44:53;0.77;;;0.70;;
67595;SDS011;54410;48.694;8.934;2023-04-24T00:47:19;0.82;;;0.80;;
67595;SDS011;54410;48.694;8.934;2023-04-24T00:49:46;2.17;;;0.88;;
67595;SDS011;54410;48.694;8.934;2023-04-24T00:52:12;2.58;;;0.70;;
67595;SDS011;54410;48.694;8.934;2023-04-24T00:54:42;0.80;;;0.80;;
67595;SDS011;54410;48.694;8.934;2023-04-24T00:57:09;1.13;;;0.90;;
67595;SDS011;54410;48.694;8.934;2023-04-24T00:59:35;1.65;;;0.70;;
67595;SDS011;54410;48.694;8.934;2023-04-24T01:02:01;0.75;;;0.50;;
67595;SDS011;54410;48.694;8.934;2023-04-24T01:04:28;2.33;;;0.85;;
67595;SDS011;54410;48.694;8.934;2023-04-24T01:06:54;0.60;;;0.60;;
67595;SDS011;54410;48.694;8.934;2023-04-24T01:09:21;0.73;;;0.68;;
67595;SDS011;54410;48.694;8.934;2023-04-24T01:11:48;1.95;;;0.70;;
67595;SDS011;54410;48.694;8.934;2023-04-24T01:14:15;2.00;;;0.80;;
67595;SDS011;54410;48.694;8.934;2023-04-24T01:16:40;0.88;;;0.73;;
67595;SDS011;54410;48.694;8.934;2023-04-24T01:19:06;0.65;;;0.65;;
67595;SDS011;54410;48.694;8.934;2023-04-24T01:21:36;1.02;;;0.90;;
67595;SDS011;54410;48.694;8.934;2023-04-24T01:24:05;2.35;;;0.80;;
67595;SDS011;54410;48.694;8.934;2023-04-24T01:26:32;1.38;;;0.80;;
67595;SDS011;54410;48.694;8.934;2023-04-24T01:28:58;0.95;;;0.82;;
67595;SDS011;54410;48.694;8.934;2023-04-24T01:31:24;1.95;;;1.05;;
67595;SDS011;54410;48.694;8.934;2023-04-24T01:33:51;1.08;;;0.90;;
67595;SDS011;54410;48.694;8.934;2023-04-24T01:36:17;2.88;;;1.30;;
67595;SDS011;54410;48.694;8.934;2023-04-24T01:38:43;2.30;;;1.60;;
67595;SDS011;54410;48.694;8.934;2023-04-24T01:41:09;1.95;;;1.30;;
67595;SDS011;54410;48.694;8.934;2023-04-24T01:43:35;1.15;;;1.02;;
67595;SDS011;54410;48.694;8.934;2023-04-24T01:46:01;0.80;;;0.80;;
67595;SDS011;54410;48.694;8.934;2023-04-24T01:48:27;1.88;;;1.20;;
67595;SDS011;54410;48.694;8.934;2023-04-24T01:50:54;1.15;;;1.05;;
67595;SDS011;54410;48.694;8.934;2023-04-24T01:53:20;1.42;;;1.30;;
67595;SDS011;54410;48.694;8.934;2023-04-24T01:55:45;3.13;;;1.63;;
67595;SDS011;54410;48.694;8.934;2023-04-24T01:58:12;1.23;;;1.10;;
67595;SDS011;54410;48.694;8.934;2023-04-24T02:00:38;1.45;;;1.25;;
67595;SDS011;54410;48.694;8.934;2023-04-24T02:03:03;1.25;;;1.10;;
67595;SDS011;54410;48.694;8.934;2023-04-24T02:05:29;1.10;;;1.00;;
67595;SDS011;54410;48.694;8.934;2023-04-24T02:07:55;1.52;;;0.93;;
67595;SDS011;54410;48.694;8.934;2023-04-24T02:10:21;1.00;;;0.90;;
67595;SDS011;54410;48.694;8.934;2023-04-24T02:12:47;1.20;;;1.02;;
67595;SDS011;54410;48.694;8.934;2023-04-24T02:15:13;1.58;;;1.10;;
67595;SDS011;54410;48.694;8.934;2023-04-24T02:17:39;1.45;;;1.20;;
67595;SDS011;54410;48.694;8.934;2023-04-24T02:20:06;1.77;;;0.90;;
67595;SDS011;54410;48.694;8.934;2023-04-24T02:22:32;2.38;;;1.38;;
67595;SDS011;54410;48.694;8.934;2023-04-24T02:24:57;1.48;;;1.20;;
67595;SDS011;54410;48.694;8.934;2023-04-24T02:27:23;1.00;;;0.90;;
67595;SDS011;54410;48.694;8.934;2023-04-24T02:29:49;1.00;;;0.85;;
67595;SDS011;54410;48.694;8.934;2023-04-24T02:32:15;1.52;;;0.98;;
67595;SDS011;54410;48.694;8.934;2023-04-24T02:34:41;1.08;;;0.98;;
67595;SDS011;54410;48.694;8.934;2023-04-24T02:37:07;1.05;;;1.00;;
67595;SDS011;54410;48.694;8.934;2023-04-24T02:39:33;1.70;;;0.82;;
67595;SDS011;54410;48.694;8.934;2023-04-24T02:41:59;0.90;;;0.90;;
67595;SDS011;54410;48.694;8.934;2023-04-24T02:44:26;2.17;;;1.20;;
67595;SDS011;54410;48.694;8.934;2023-04-24T02:46:52;1.65;;;0.90;;
67595;SDS011;54410;48.694;8.934;2023-04-24T02:49:18;1.30;;;1.20;;
67595;SDS011;54410;48.694;8.934;2023-04-24T02:51:44;1.30;;;1.20;;
67595;SDS011;54410;48.694;8.934;2023-04-24T02:54:10;2.00;;;1.05;;
67595;SDS011;54410;48.694;8.934;2023-04-24T02:56:35;3.22;;;1.40;;
67595;SDS011;54410;48.694;8.934;2023-04-24T02:59:01;2.47;;;1.30;;
67595;SDS011;54410;48.694;8.934;2023-04-24T03:01:27;0.80;;;0.80;;
67595;SDS011;54410;48.694;8.934;2023-04-24T03:03:53;1.85;;;1.00;;
67595;SDS011;54410;48.694;8.934;2023-04-24T03:06:19;1.60;;;1.13;;
67595;SDS011;54410;48.694;8.934;2023-04-24T03:08:45;1.70;;;1.35;;
67595;SDS011;54410;48.694;8.934;2023-04-24T03:11:11;1.30;;;1.20;;
67595;SDS011;54410;48.694;8.934;2023-04-24T03:13:37;4.45;;;1.27;;
67595;SDS011;54410;48.694;8.934;2023-04-24T03:16:03;2.45;;;1.13;;
67595;SDS011;54410;48.694;8.934;2023-04-24T03:18:30;3.28;;;1.30;;
67595;SDS011;54410;48.694;8.934;2023-04-24T03:20:56;1.48;;;1.38;;
67595;SDS011;54410;48.694;8.934;2023-04-24T03:23:22;1.42;;;1.33;;
67595;SDS011;54410;48.694;8.934;2023-04-24T03:25:48;2.35;;;1.50;;
67595;SDS011;54410;48.694;8.934;2023-04-24T03:28:14;1.52;;;1.35;;
67595;SDS011;54410;48.694;8.934;2023-04-24T03:30:40;2.67;;;1.20;;
67595;SDS011;54410;48.694;8.934;2023-04-24T03:33:06;1.00;;;1.00;;
67595;SDS011;54410;48.694;8.934;2023-04-24T03:35:31;1.73;;;1.20;;
67595;SDS011;54410;48.694;8.934;2023-04-24T03:37:57;1.70;;;1.20;;
67595;SDS011;54410;48.694;8.934;2023-04-24T03:40:23;1.98;;;0.88;;
67595;SDS011;54410;48.694;8.934;2023-04-24T03:42:49;3.05;;;1.20;;
67595;SDS011;54410;48.694;8.934;2023-04-24T03:45:15;0.80;;;0.80;;
67595;SDS011;54410;48.694;8.934;2023-04-24T03:47:41;1.40;;;1.30;;
67595;SDS011;54410;48.694;8.934;2023-04-24T03:50:07;1.50;;;1.30;;
67595;SDS011;54410;48.694;8.934;2023-04-24T03:52:33;1.27;;;1.10;;
67595;SDS011;54410;48.694;8.934;2023-04-24T03:54:59;2.05;;;1.27;;
67595;SDS011;54410;48.694;8.934;2023-04-24T03:57:25;1.98;;;1.40;;
67595;SDS011;54410;48.694;8.934;2023-04-24T03:59:50;0.85;;;0.85;;
67595;SDS011;54410;48.694;8.934;2023-04-24T04:02:16;1.90;;;1.40;;
67595;SDS011;54410;48.694;8.934;2023-04-24T04:04:42;2.33;;;1.23;;
67595;SDS011;54410;48.694;8.934;2023-04-24T04:07:08;1.83;;;1.20;;
67595;SDS011;54410;48.694;8.934;2023-04-24T04:09:34;1.23;;;1.00;;
67595;SDS011;54410;48.694;8.934;2023-04-24T04:12:00;1.80;;;0.80;;
67595;SDS011;54410;48.694;8.934;2023-04-24T04:14:27;2.38;;;1.13;;
67595;SDS011;54410;48.694;8.934;2023-04-24T04:16:52;1.52;;;1.00;;
67595;SDS011;54410;48.694;8.934;2023-04-24T04:19:18;1.42;;;0.80;;
67595;SDS011;54410;48.694;8.934;2023-04-24T04:21:44;2.57;;;1.20;;
67595;SDS011;54410;48.694;8.934;2023-04-24T04:24:10;3.60;;;1.00;;
67595;SDS011;54410;48.694;8.934;2023-04-24T04:26:37;0.97;;;0.90;;
67595;SDS011;54410;48.694;8.934;2023-04-24T04:29:03;1.67;;;1.10;;
67595;SDS011;54410;48.694;8.934;2023-04-24T04:31:29;2.07;;;1.37;;
67595;SDS011;54410;48.694;8.934;2023-04-24T04:33:55;1.50;;;1.20;;
67595;SDS011;54410;48.694;8.934;2023-04-24T04:36:21;1.30;;;1.10;;
67595;SDS011;54410;48.694;8.934;2023-04-24T04:38:48;1.23;;;1.20;;
67595;SDS011;54410;48.694;8.934;2023-04-24T04:41:14;1.67;;;1.00;;
67595;SDS011;54410;48.694;8.934;2023-04-24T04:43:41;1.43;;;1.33;;
67595;SDS011;54410;48.694;8.934;2023-04-24T04:46:07;1.20;;;1.10;;
67595;SDS011;54410;48.694;8.934;2023-04-24T04:48:35;1.80;;;1.70;;
67595;SDS011;54410;48.694;8.934;2023-04-24T04:51:01;1.23;;;1.13;;
67595;SDS011;54410;48.694;8.934;2023-04-24T04:53:27;1.33;;;1.23;;
67595;SDS011;54410;48.694;8.934;2023-04-24T04:55:53;1.07;;;1.07;;
67595;SDS011;54410;48.694;8.934;2023-04-24T04:58:19;2.97;;;1.60;;
67595;SDS011;54410;48.694;8.934;2023-04-24T05:00:47;2.27;;;1.50;;
67595;SDS011;54410;48.694;8.934;2023-04-24T05:03:13;2.30;;;1.63;;
67595;SDS011;54410;48.694;8.934;2023-04-24T05:05:39;2.53;;;1.83;;
67595;SDS011;54410;48.694;8.934;2023-04-24T05:08:06;1.80;;;1.50;;
67595;SDS011;54410;48.694;8.934;2023-04-24T05:10:32;1.50;;;1.30;;
67595;SDS011;54410;48.694;8.934;2023-04-24T05:12:58;2.13;;;1.80;;
67595;SDS011;54410;48.694;8.934;2023-04-24T05:15:24;1.63;;;1.53;;
67595;SDS011;54410;48.694;8.934;2023-04-24T05:17:50;1.93;;;1.57;;
67595;SDS011;54410;48.694;8.934;2023-04-24T05:20:16;1.97;;;1.70;;
67595;SDS011;54410;48.694;8.934;2023-04-24T05:22:42;1.77;;;1.67;;
67595;SDS011;54410;48.694;8.934;2023-04-24T05:25:08;1.70;;;1.60;;
67595;SDS011;54410;48.694;8.934;2023-04-24T05:27:34;2.13;;;1.47;;
67595;SDS011;54410;48.694;8.934;2023-04-24T05:30:00;2.30;;;2.00;;
67595;SDS011;54410;48.694;8.934;2023-04-24T05:32:26;3.10;;;1.70;;
67595;SDS011;54410;48.694;8.934;2023-04-24T05:34:52;4.33;;;2.40;;
67595;SDS011;54410;48.694;8.934;2023-04-24T05:37:18;3.53;;;2.00;;
67595;SDS011;54410;48.694;8.934;2023-04-24T05:39:44;2.00;;;1.90;;
67595;SDS011;54410;48.694;8.934;2023-04-24T05:42:10;6.53;;;3.30;;
67595;SDS011;54410;48.694;8.934;2023-04-24T05:44:36;5.83;;;2.20;;
67595;SDS011;54410;48.694;8.934;2023-04-24T05:47:01;3.57;;;1.90;;
67595;SDS011;54410;48.694;8.934;2023-04-24T05:49:27;4.77;;;2.63;;
67595;SDS011;54410;48.694;8.934;2023-04-24T05:51:53;2.78;;;2.33;;
67595;SDS011;54410;48.694;8.934;2023-04-24T05:54:19;4.25;;;2.53;;
67595;SDS011;54410;48.694;8.934;2023-04-24T05:56:46;4.27;;;2.20;;
67595;SDS011;54410;48.694;8.934;2023-04-24T05:59:12;2.47;;;2.23;;
67595;SDS011;54410;48.694;8.934;2023-04-24T06:01:38;9.53;;;4.37;;
67595;SDS011;54410;48.694;8.934;2023-04-24T06:04:03;5.65;;;3.30;;
67595;SDS011;54410;48.694;8.934;2023-04-24T06:06:29;2.35;;;1.88;;
67595;SDS011;54410;48.694;8.934;2023-04-24T06:08:55;1.25;;;1.15;;
67595;SDS011;54410;48.694;8.934;2023-04-24T06:11:21;2.92;;;1.05;;
67595;SDS011;54410;48.694;8.934;2023-04-24T06:13:47;1.63;;;1.08;;
67595;SDS011;54410;48.694;8.934;2023-04-24T06:16:13;2.47;;;1.48;;
67595;SDS011;54410;48.694;8.934;2023-04-24T06:18:39;2.15;;;1.20;;
67595;SDS011;54410;48.694;8.934;2023-04-24T06:21:05;1.95;;;0.85;;
67595;SDS011;54410;48.694;8.934;2023-04-24T06:23:31;1.45;;;0.90;;
67595;SDS011;54410;48.694;8.934;2023-04-24T06:25:58;0.70;;;0.60;;
67595;SDS011;54410;48.694;8.934;2023-04-24T06:28:24;0.95;;;0.85;;
67595;SDS011;54410;48.694;8.934;2023-04-24T06:30:50;1.20;;;1.00;;
67595;SDS011;54410;48.694;8.934;2023-04-24T06:33:15;0.80;;;0.80;;
67595;SDS011;54410;48.694;8.934;2023-04-24T06:35:42;1.60;;;1.00;;
67595;SDS011;54410;48.694;8.934;2023-04-24T06:38:08;0.68;;;0.68;;
67595;SDS011;54410;48.694;8.934;2023-04-24T06:40:34;1.63;;;1.05;;
67595;SDS011;54410;48.694;8.934;2023-04-24T06:43:00;0.73;;;0.73;;
67595;SDS011;54410;48.694;8.934;2023-04-24T06:45:27;1.30;;;1.10;;
67595;SDS011;54410;48.694;8.934;2023-04-24T06:47:54;1.73;;;1.40;;
67595;SDS011;54410;48.694;8.934;2023-04-24T06:50:20;1.73;;;1.20;;
67595;SDS011;54410;48.694;8.934;2023-04-24T06:52:45;1.42;;;1.33;;
67595;SDS011;54410;48.694;8.934;2023-04-24T06:55:11;2.45;;;1.23;;
67595;SDS011;54410;48.694;8.934;2023-04-24T06:57:37;1.60;;;1.50;;
67595;SDS011;54410;48.694;8.934;2023-04-24T07:00:03;1.48;;;1.27;;
67595;SDS011;54410;48.694;8.934;2023-04-24T07:02:31;1.77;;;1.23;;
67595;SDS011;54410;48.694;8.934;2023-04-24T07:04:57;1.77;;;1.30;;
67595;SDS011;54410;48.694;8.934;2023-04-24T07:07:23;1.50;;;1.23;;
67595;SDS011;54410;48.694;8.934;2023-04-24T07:09:49;1.65;;;1.30;;
67595;SDS011;54410;48.694;8.934;2023-04-24T07:12:15;1.42;;;1.30;;
67595;SDS011;54410;48.694;8.934;2023-04-24T07:14:42;1.45;;;1.35;;
67595;SDS011;54410;48.694;8.934;2023-04-24T07:17:08;1.20;;;1.10;;
67595;SDS011;54410;48.694;8.934;2023-04-24T07:19:34;1.42;;;1.02;;
67595;SDS011;54410;48.694;8.934;2023-04-24T07:22:02;1.25;;;1.08;;
67595;SDS011;54410;48.694;8.934;2023-04-24T07:24:28;0.90;;;0.90;;
67595;SDS011;54410;48.694;8.934;2023-04-24T07:26:54;0.65;;;0.65;;
67595;SDS011;54410;48.694;8.934;2023-04-24T07:29:20;0.70;;;0.70;;
67595;SDS011;54410;48.694;8.934;2023-04-24T07:31:46;0.80;;;0.80;;
67595;SDS011;54410;48.694;8.934;2023-04-24T07:34:11;1.08;;;0.80;;
67595;SDS011;54410;48.694;8.934;2023-04-24T07:36:37;0.80;;;0.73;;
67595;SDS011;54410;48.694;8.934;2023-04-24T07:39:04;0.70;;;0.70;;
67595;SDS011;54410;48.694;8.934;2023-04-24T07:41:30;1.25;;;0.90;;
67595;SDS011;54410;48.694;8.934;2023-04-24T07:43:56;1.17;;;1.00;;
67595;SDS011;54410;48.694;8.934;2023-04-24T07:46:22;1.10;;;0.80;;
67595;SDS011;54410;48.694;8.934;2023-04-24T07:48:48;0.80;;;0.80;;
67595;SDS011;54410;48.694;8.934;2023-04-24T07:51:14;1.75;;;0.90;;
67595;SDS011;54410;48.694;8.934;2023-04-24T07:53:41;1.40;;;1.05;;
67595;SDS011;54410;48.694;8.934;2023-04-24T07:56:06;1.20;;;1.02;;
67595;SDS011;54410;48.694;8.934;2023-04-24T07:58:33;1.52;;;1.30;;
67595;SDS011;54410;48.694;8.934;2023-04-24T08:00:59;1.10;;;0.93;;
67595;SDS011;54410;48.694;8.934;2023-04-24T08:03:25;2.50;;;1.10;;
67595;SDS011;54410;48.694;8.934;2023-04-24T08:05:51;2.30;;;1.10;;
67595;SDS011;54410;48.694;8.934;2023-04-24T08:08:17;3.08;;;1.17;;
67595;SDS011;54410;48.694;8.934;2023-04-24T08:10:43;1.40;;;1.10;;
67595;SDS011;54410;48.694;8.934;2023-04-24T08:13:09;1.60;;;1.00;;
67595;SDS011;54410;48.694;8.934;2023-04-24T08:15:36;1.35;;;0.98;;
67595;SDS011;54410;48.694;8.934;2023-04-24T08:18:02;1.10;;;1.00;;
67595;SDS011;54410;48.694;8.934;2023-04-24T08:20:28;2.72;;;1.17;;
67595;SDS011;54410;48.694;8.934;2023-04-24T08:22:54;1.77;;;1.00;;
67595;SDS011;54410;48.694;8.934;2023-04-24T08:25:20;1.63;;;1.08;;
67595;SDS011;54410;48.694;8.934;2023-04-24T08:27:47;0.73;;;0.73;;
67595;SDS011;54410;48.694;8.934;2023-04-24T08:30:13;1.92;;;1.02;;
67595;SDS011;54410;48.694;8.934;2023-04-24T08:32:40;1.73;;;1.13;;
67595;SDS011;54410;48.694;8.934;2023-04-24T08:35:06;1.17;;;0.88;;
67595;SDS011;54410;48.694;8.934;2023-04-24T08:37:34;1.10;;;0.95;;
67595;SDS011;54410;48.694;8.934;2023-04-24T08:40:00;1.42;;;1.00;;
67595;SDS011;54410;48.694;8.934;2023-04-24T08:42:27;1.30;;;1.08;;
67595;SDS011;54410;48.694;8.934;2023-04-24T08:44:54;1.35;;;1.20;;
67595;SDS011;54410;48.694;8.934;2023-04-24T08:47:20;1.63;;;1.50;;
67595;SDS011;54410;48.694;8.934;2023-04-24T08:49:45;1.63;;;1.15;;
67595;SDS011;54410;48.694;8.934;2023-04-24T08:52:13;1.45;;;1.05;;
67595;SDS011;54410;48.694;8.934;2023-04-24T08:54:39;1.65;;;0.98;;
67595;SDS011;54410;48.694;8.934;2023-04-24T08:57:05;3.22;;;1.08;;
67595;SDS011;54410;48.694;8.934;2023-04-24T08:59:32;2.83;;;0.80;;
67595;SDS011;54410;48.694;8.934;2023-04-24T09:01:59;2.10;;;1.00;;
67595;SDS011;54410;48.694;8.934;2023-04-24T09:04:25;0.90;;;0.90;;
67595;SDS011;54410;48.694;8.934;2023-04-24T09:06:55;1.73;;;1.17;;
67595;SDS011;54410;48.694;8.934;2023-04-24T09:09:22;1.58;;;1.15;;
67595;SDS011;54410;48.694;8.934;2023-04-24T09:11:51;2.58;;;1.20;;
67595;SDS011;54410;48.694;8.934;2023-04-24T09:14:19;2.05;;;0.80;;
67595;SDS011;54410;48.694;8.934;2023-04-24T09:16:45;1.00;;;1.00;;
67595;SDS011;54410;48.694;8.934;2023-04-24T09:19:12;1.52;;;0.93;;
67595;SDS011;54410;48.694;8.934;2023-04-24T09:21:37;1.15;;;0.77;;
67595;SDS011;54410;48.694;8.934;2023-04-24T09:24:07;0.80;;;0.80;;
67595;SDS011;54410;48.694;8.934;2023-04-24T09:26:36;0.75;;;0.70;;
67595;SDS011;54410;48.694;8.934;2023-04-24T09:29:03;1.42;;;0.80;;
67595;SDS011;54410;48.694;8.934;2023-04-24T09:31:29;0.98;;;0.90;;
67595;SDS011;54410;48.694;8.934;2023-04-24T09:33:59;0.52;;;0.52;;
67595;SDS011;54410;48.694;8.934;2023-04-24T09:36:52;1.27;;;0.85;;
67595;SDS011;54410;48.694;8.934;2023-04-24T09:39:17;0.60;;;0.60;;
67595;SDS011;54410;48.694;8.934;2023-04-24T09:44:14;2.63;;;0.52;;
67595;SDS011;54410;48.694;8.934;2023-04-24T09:46:41;0.75;;;0.60;;
67595;SDS011;54410;48.694;8.934;2023-04-24T09:49:14;0.98;;;0.80;;
67595;SDS011;54410;48.694;8.934;2023-04-24T09:51:41;2.83;;;0.82;;
67595;SDS011;54410;48.694;8.934;2023-04-24T09:54:14;1.83;;;0.90;;
67595;SDS011;54410;48.694;8.934;2023-04-24T09:56:46;0.80;;;0.80;;
67595;SDS011;54410;48.694;8.934;2023-04-24T09:59:16;0.73;;;0.73;;
67595;SDS011;54410;48.694;8.934;2023-04-24T10:01:43;0.63;;;0.63;;
67595;SDS011;54410;48.694;8.934;2023-04-24T10:06:43;1.23;;;0.70;;
67595;SDS011;54410;48.694;8.934;2023-04-24T10:09:10;0.70;;;0.70;;
67595;SDS011;54410;48.694;8.934;2023-04-24T10:11:37;0.98;;;0.70;;
67595;SDS011;54410;48.694;8.934;2023-04-24T10:14:08;0.70;;;0.70;;
67595;SDS011;54410;48.694;8.934;2023-04-24T10:16:35;0.60;;;0.60;;
67595;SDS011;54410;48.694;8.934;2023-04-24T10:19:02;0.88;;;0.88;;
67595;SDS011;54410;48.694;8.934;2023-04-24T10:21:28;1.23;;;0.90;;
67595;SDS011;54410;48.694;8.934;2023-04-24T10:23:55;1.10;;;0.80;;
67595;SDS011;54410;48.694;8.934;2023-04-24T10:26:20;0.90;;;0.70;;
67595;SDS011;54410;48.694;8.934;2023-04-24T10:28:47;0.80;;;0.80;;
67595;SDS011;54410;48.694;8.934;2023-04-24T10:31:13;1.98;;;0.80;;
67595;SDS011;54410;48.694;8.934;2023-04-24T10:33:43;1.65;;;0.80;;
67595;SDS011;54410;48.694;8.934;2023-04-24T10:36:09;1.27;;;0.90;;
67595;SDS011;54410;48.694;8.934;2023-04-24T10:38:35;0.70;;;0.70;;
67595;SDS011;54410;48.694;8.934;2023-04-24T10:43:35;0.88;;;0.80;;
67595;SDS011;54410;48.694;8.934;2023-04-24T10:46:02;1.25;;;0.93;;
67595;SDS011;54410;48.694;8.934;2023-04-24T10:48:28;1.15;;;0.73;;
67595;SDS011;54410;48.694;8.934;2023-04-24T10:50:53;0.85;;;0.85;;
67595;SDS011;54410;48.694;8.934;2023-04-24T10:53:20;0.85;;;0.80;;
67595;SDS011;54410;48.694;8.934;2023-04-24T10:55:49;0.88;;;0.85;;
67595;SDS011;54410;48.694;8.934;2023-04-24T10:58:16;0.90;;;0.80;;
67595;SDS011;54410;48.694;8.934;2023-04-24T11:00:43;1.27;;;1.13;;
67595;SDS011;54410;48.694;8.934;2023-04-24T11:03:31;0.85;;;0.85;;
67595;SDS011;54410;48.694;8.934;2023-04-24T11:05:58;1.02;;;1.00;;
67595;SDS011;54410;48.694;8.934;2023-04-24T11:11:00;1.25;;;0.95;;
67595;SDS011;54410;48.694;8.934;2023-04-24T11:13:27;2.53;;;2.25;;
67595;SDS011;54410;48.694;8.934;2023-04-24T11:19:07;2.17;;;1.73;;
67595;SDS011;54410;48.694;8.934;2023-04-24T11:21:43;6.63;;;3.00;;
67595;SDS011;54410;48.694;8.934;2023-04-24T11:26:59;1.60;;;1.27;;
67595;SDS011;54410;48.694;8.934;2023-04-24T11:29:45;1.00;;;0.93;;
67595;SDS011;54410;48.694;8.934;2023-04-24T11:37:36;1.00;;;0.90;;
67595;SDS011;54410;48.694;8.934;2023-04-24T11:40:03;1.95;;;1.13;;
67595;SDS011;54410;48.694;8.934;2023-04-24T11:42:37;0.95;;;0.80;;
67595;SDS011;54410;48.694;8.934;2023-04-24T11:45:10;0.90;;;0.90;;
67595;SDS011;54410;48.694;8.934;2023-04-24T11:47:36;1.13;;;0.93;;
67595;SDS011;54410;48.694;8.934;2023-04-24T11:50:03;1.77;;;1.08;;
67595;SDS011;54410;48.694;8.934;2023-04-24T11:52:29;1.10;;;1.00;;
67595;SDS011;54410;48.694;8.934;2023-04-24T11:54:56;1.02;;;1.00;;
67595;SDS011;54410;48.694;8.934;2023-04-24T11:57:22;1.63;;;1.15;;
67595;SDS011;54410;48.694;8.934;2023-04-24T11:59:51;1.63;;;1.30;;
67595;SDS011;54410;48.694;8.934;2023-04-24T12:02:23;1.48;;;1.38;;
67595;SDS011;54410;48.694;8.934;2023-04-24T12:04:49;6.10;;;1.90;;
67595;SDS011;54410;48.694;8.934;2023-04-24T12:07:16;1.20;;;1.10;;
67595;SDS011;54410;48.694;8.934;2023-04-24T12:09:42;1.27;;;1.20;;
67595;SDS011;54410;48.694;8.934;2023-04-24T12:12:08;1.00;;;1.00;;
67595;SDS011;54410;48.694;8.934;2023-04-24T12:14:51;3.25;;;0.95;;
67595;SDS011;54410;48.694;8.934;2023-04-24T12:17:23;0.80;;;0.80;;
67595;SDS011;54410;48.694;8.934;2023-04-24T12:19:50;1.23;;;0.93;;
67595;SDS011;54410;48.694;8.934;2023-04-24T12:22:15;1.23;;;1.10;;
67595;SDS011;54410;48.694;8.934;2023-04-24T12:24:58;1.00;;;0.70;;
67595;SDS011;54410;48.694;8.934;2023-04-24T12:27:30;3.00;;;0.88;;
67595;SDS011;54410;48.694;8.934;2023-04-24T12:29:57;1.08;;;0.98;;
67595;SDS011;54410;48.694;8.934;2023-04-24T12:32:24;0.70;;;0.70;;
67595;SDS011;54410;48.694;8.934;2023-04-24T12:34:53;0.90;;;0.80;;
67595;SDS011;54410;48.694;8.934;2023-04-24T12:37:20;1.13;;;0.90;;
67595;SDS011;54410;48.694;8.934;2023-04-24T12:40:02;1.02;;;0.93;;
67595;SDS011;54410;48.694;8.934;2023-04-24T12:42:29;0.90;;;0.80;;
67595;SDS011;54410;48.694;8.934;2023-04-24T12:44:59;0.98;;;0.98;;
67595;SDS011;54410;48.694;8.934;2023-04-24T12:47:25;2.45;;;1.38;;
67595;SDS011;54410;48.694;8.934;2023-04-24T12:49:52;1.40;;;1.30;;
67595;SDS011;54410;48.694;8.934;2023-04-24T12:52:18;4.40;;;1.00;;
67595;SDS011;54410;48.694;8.934;2023-04-24T12:54:47;1.77;;;1.10;;
67595;SDS011;54410;48.694;8.934;2023-04-24T12:57:13;1.15;;;1.05;;
67595;SDS011;54410;48.694;8.934;2023-04-24T12:59:39;1.52;;;1.42;;
67595;SDS011;54410;48.694;8.934;2023-04-24T13:02:05;1.20;;;1.10;;
67595;SDS011;54410;48.694;8.934;2023-04-24T13:04:32;1.52;;;1.27;;
67595;SDS011;54410;48.694;8.934;2023-04-24T13:06:58;1.08;;;1.00;;
67595;SDS011;54410;48.694;8.934;2023-04-24T13:09:24;1.95;;;1.30;;
67595;SDS011;54410;48.694;8.934;2023-04-24T13:11:50;1.88;;;1.55;;
67595;SDS011;54410;48.694;8.934;2023-04-24T13:14:16;1.08;;;1.08;;
67595;SDS011;54410;48.694;8.934;2023-04-24T13:16:42;1.25;;;1.15;;
67595;SDS011;54410;48.694;8.934;2023-04-24T13:19:07;1.27;;;1.10;;
67595;SDS011;54410;48.694;8.934;2023-04-24T13:21:33;1.90;;;1.30;;
67595;SDS011;54410;48.694;8.934;2023-04-24T13:23:59;1.77;;;1.33;;
67595;SDS011;54410;48.694;8.934;2023-04-24T13:26:25;1.45;;;1.02;;
67595;SDS011;54410;48.694;8.934;2023-04-24T13:28:51;1.27;;;1.17;;
67595;SDS011;54410;48.694;8.934;2023-04-24T13:31:17;2.08;;;1.40;;
67595;SDS011;54410;48.694;8.934;2023-04-24T13:33:43;1.23;;;1.13;;
67595;SDS011;54410;48.694;8.934;2023-04-24T13:36:09;1.67;;;1.20;;
67595;SDS011;54410;48.694;8.934;2023-04-24T13:38:35;2.40;;;1.25;;
67595;SDS011;54410;48.694;8.934;2023-04-24T13:41:01;3.03;;;2.72;;
67595;SDS011;54410;48.694;8.934;2023-04-24T13:43:27;1.80;;;1.50;;
67595;SDS011;54410;48.694;8.934;2023-04-24T13:45:53;1.40;;;1.30;;
67595;SDS011;54410;48.694;8.934;2023-04-24T13:48:19;2.08;;;1.70;;
67595;SDS011;54410;48.694;8.934;2023-04-24T13:50:45;1.35;;;1.20;;
67595;SDS011;54410;48.694;8.934;2023-04-24T13:53:13;2.00;;;1.40;;
67595;SDS011;54410;48.694;8.934;2023-04-24T13:55:39;1.63;;;1.40;;
67595;SDS011;54410;48.694;8.934;2023-04-24T13:58:05;1.98;;;1.33;;
67595;SDS011;54410;48.694;8.934;2023-04-24T14:00:31;3.58;;;2.47;;
67595;SDS011;54410;48.694;8.934;2023-04-24T14:02:57;2.17;;;1.75;;
67595;SDS011;54410;48.694;8.934;2023-04-24T14:05:23;1.73;;;1.63;;
67595;SDS011;54410;48.694;8.934;2023-04-24T14:07:50;2.10;;;1.83;;
67595;SDS011;54410;48.694;8.934;2023-04-24T14:10:16;1.90;;;1.80;;
67595;SDS011;54410;48.694;8.934;2023-04-24T14:12:42;2.33;;;1.80;;
67595;SDS011;54410;48.694;8.934;2023-04-24T14:15:08;2.53;;;2.05;;
67595;SDS011;54410;48.694;8.934;2023-04-24T14:17:34;2.60;;;1.80;;
67595;SDS011;54410;48.694;8.934;2023-04-24T14:20:01;1.92;;;1.83;;
67595;SDS011;54410;48.694;8.934;2023-04-24T14:22:26;2.13;;;1.98;;
67595;SDS011;54410;48.694;8.934;2023-04-24T14:24:52;2.78;;;1.83;;
67595;SDS011;54410;48.694;8.934;2023-04-24T14:27:18;2.72;;;1.80;;
67595;SDS011;54410;48.694;8.934;2023-04-24T14:29:44;3.00;;;1.48;;
67595;SDS011;54410;48.694;8.934;2023-04-24T14:32:10;2.08;;;1.60;;
67595;SDS011;54410;48.694;8.934;2023-04-24T14:34:36;2.83;;;1.60;;
67595;SDS011;54410;48.694;8.934;2023-04-24T14:37:02;2.95;;;1.80;;
67595;SDS011;54410;48.694;8.934;2023-04-24T14:39:28;1.45;;;1.35;;
67595;SDS011;54410;48.694;8.934;2023-04-24T14:41:54;3.25;;;1.48;;
67595;SDS011;54410;48.694;8.934;2023-04-24T14:44:20;3.15;;;1.73;;
67595;SDS011;54410;48.694;8.934;2023-04-24T14:46:46;3.70;;;1.52;;
67595;SDS011;54410;48.694;8.934;2023-04-24T14:49:12;2.95;;;1.98;;
67595;SDS011;54410;48.694;8.934;2023-04-24T14:51:38;1.20;;;1.15;;
67595;SDS011;54410;48.694;8.934;2023-04-24T14:54:03;1.67;;;1.58;;
67595;SDS011;54410;48.694;8.934;2023-04-24T14:56:29;1.98;;;1.50;;
67595;SDS011;54410;48.694;8.934;2023-04-24T14:58:55;3.00;;;1.52;;
67595;SDS011;54410;48.694;8.934;2023-04-24T15:01:21;4.25;;;1.20;;
67595;SDS011;54410;48.694;8.934;2023-04-24T15:03:47;1.77;;;1.45;;
67595;SDS011;54410;48.694;8.934;2023-04-24T15:06:13;2.60;;;1.30;;